PWSweather.com
Personal Weather Stations
Station Observations
CANDIOTINO
Barrio Candioti Norte, Santa FeAR 3000

Barrio Candioti NorteSanta FeAR 3000

Lat: -31.632778, Lon: -60.695556

Elevation: 69

Station Type: WH-1081

http://www.eltiempoensantafe.com.ar

High Low Average
Temperature 74.3°F23.5°C 44.1°F6.7°C 57.6°F14.2°C
Dew Point 39.6°F4.2°C 29.4°F-1.4°C 34.9°F1.6°C
Winds 15.2 mph 24.5 kmh 0.7 mph 1.1 kmh 5.0 mph SW8.0 kmh SW
Wind Gusts 23.5 mph37.8 kmh 5.4 mph8.7 kmh 11.0 mph17.7 kmh
Humidity 62% 23% 45%
Pressure 30.23 in1023.7 mb 30.01 in1016.3 mb -
Precipitation 0.00 in0.0 mm - -
Hour Temp Dew Point Humidity Winds Wind Gusts Pressure Precip Precip Rate Daily Precip Total
12:00 AM 49.6°F9.8°C 37.2°F2.9°C 62% 1.6 mph N2.6 kmh N 6.0 mph9.7 kmh 30.22 in1023.4 mb 0.00 in0.0 mm 0.00 in0.0 mm 0.00 in0.0 mm
12:15 AM 49.3°F9.6°C 36.0°F2.2°C 60% 1.6 mph NNW2.6 kmh NNW 6.0 mph9.7 kmh 30.23 in1023.7 mb 0.00 in0.0 mm 0.00 in0.0 mm 0.00 in0.0 mm
12:30 AM 49.3°F9.6°C 33.8°F1.0°C 55% 3.8 mph N6.1 kmh N 5.4 mph8.7 kmh 30.23 in1023.7 mb 0.00 in0.0 mm 0.00 in0.0 mm 0.00 in0.0 mm
12:45 AM 49.3°F9.6°C 33.4°F0.8°C 54% 3.1 mph N5.0 kmh N 7.6 mph12.2 kmh 30.22 in1023.4 mb 0.00 in0.0 mm 0.00 in0.0 mm 0.00 in0.0 mm
01:00 AM 49.3°F9.6°C 32.9°F0.5°C 53% 3.1 mph N5.0 kmh N 6.9 mph11.1 kmh 30.22 in1023.4 mb 0.00 in0.0 mm 0.00 in0.0 mm 0.00 in0.0 mm
01:15 AM 49.3°F9.6°C 32.9°F0.5°C 53% 3.8 mph N6.1 kmh N 6.0 mph9.7 kmh 30.22 in1023.4 mb 0.00 in0.0 mm 0.00 in0.0 mm 0.00 in0.0 mm
01:30 AM 49.1°F9.5°C 33.2°F0.7°C 54% 4.5 mph N7.2 kmh N 8.3 mph13.4 kmh 30.22 in1023.4 mb 0.00 in0.0 mm 0.00 in0.0 mm 0.00 in0.0 mm
01:45 AM 48.7°F9.3°C 32.8°F0.4°C 54% 5.4 mph N8.7 kmh N 8.3 mph13.4 kmh 30.22 in1023.4 mb 0.00 in0.0 mm 0.00 in0.0 mm 0.00 in0.0 mm
02:00 AM 48.7°F9.3°C 32.4°F0.2°C 53% 4.5 mph N7.2 kmh N 8.3 mph13.4 kmh 30.22 in1023.4 mb 0.00 in0.0 mm 0.00 in0.0 mm 0.00 in0.0 mm
02:15 AM 48.6°F9.2°C 32.2°F0.1°C 53% 1.6 mph N2.6 kmh N 6.0 mph9.7 kmh 30.21 in1023.0 mb 0.00 in0.0 mm 0.00 in0.0 mm 0.00 in0.0 mm
02:30 AM 48.4°F9.1°C 32.0°F0.0°C 53% 3.8 mph N6.1 kmh N 7.6 mph12.2 kmh 30.21 in1023.0 mb 0.00 in0.0 mm 0.00 in0.0 mm 0.00 in0.0 mm
02:45 AM 48.4°F9.1°C 31.6°F-0.2°C 52% 3.1 mph N5.0 kmh N 9.2 mph14.8 kmh 30.21 in1023.0 mb 0.00 in0.0 mm 0.00 in0.0 mm 0.00 in0.0 mm
03:00 AM 47.5°F8.6°C 32.1°F0.1°C 55% 3.1 mph N5.0 kmh N 6.0 mph9.7 kmh 30.21 in1023.0 mb 0.00 in0.0 mm 0.00 in0.0 mm 0.00 in0.0 mm
03:15 AM 46.4°F8.0°C 31.6°F-0.2°C 56% 3.8 mph NNW6.1 kmh NNW 6.9 mph11.1 kmh 30.20 in1022.7 mb 0.00 in0.0 mm 0.00 in0.0 mm 0.00 in0.0 mm
03:30 AM 45.9°F7.7°C 31.9°F-0.1°C 58% 2.2 mph NNW3.5 kmh NNW 6.0 mph9.7 kmh 30.20 in1022.7 mb 0.00 in0.0 mm 0.00 in0.0 mm 0.00 in0.0 mm
03:45 AM 45.7°F7.6°C 31.8°F-0.1°C 58% 2.2 mph N3.5 kmh N 5.4 mph8.7 kmh 30.20 in1022.7 mb 0.00 in0.0 mm 0.00 in0.0 mm 0.00 in0.0 mm
04:00 AM 46.0°F7.8°C 31.2°F-0.4°C 56% 3.1 mph N5.0 kmh N 6.9 mph11.1 kmh 30.20 in1022.7 mb 0.00 in0.0 mm 0.00 in0.0 mm 0.00 in0.0 mm
04:15 AM 45.9°F7.7°C 31.5°F-0.3°C 57% 2.2 mph N3.5 kmh N 6.0 mph9.7 kmh 30.19 in1022.4 mb 0.00 in0.0 mm 0.00 in0.0 mm 0.00 in0.0 mm
04:30 AM 45.7°F7.6°C 31.3°F-0.4°C 57% 3.8 mph NNW6.1 kmh NNW 6.9 mph11.1 kmh 30.18 in1022.0 mb 0.00 in0.0 mm 0.00 in0.0 mm 0.00 in0.0 mm
04:45 AM 45.5°F7.5°C 31.2°F-0.4°C 57% 4.5 mph N7.2 kmh N 7.6 mph12.2 kmh 30.18 in1022.0 mb 0.00 in0.0 mm 0.00 in0.0 mm 0.00 in0.0 mm
05:00 AM 45.3°F7.4°C 31.0°F-0.6°C 57% 2.2 mph N3.5 kmh N 6.9 mph11.1 kmh 30.18 in1022.0 mb 0.00 in0.0 mm 0.00 in0.0 mm 0.00 in0.0 mm
05:15 AM 45.1°F7.3°C 31.3°F-0.4°C 58% 2.2 mph N3.5 kmh N 6.0 mph9.7 kmh 30.18 in1022.0 mb 0.00 in0.0 mm 0.00 in0.0 mm 0.00 in0.0 mm
05:30 AM 45.0°F7.2°C 31.1°F-0.5°C 58% 0.7 mph N1.1 kmh N 6.9 mph11.1 kmh 30.18 in1022.0 mb 0.00 in0.0 mm 0.00 in0.0 mm 0.00 in0.0 mm
05:45 AM 44.2°F6.8°C 31.7°F-0.2°C 61% 1.6 mph NNW2.6 kmh NNW 5.4 mph8.7 kmh 30.17 in1021.7 mb 0.00 in0.0 mm 0.00 in0.0 mm 0.00 in0.0 mm
06:00 AM 44.1°F6.7°C 31.9°F-0.1°C 62% 1.6 mph N2.6 kmh N 6.0 mph9.7 kmh 30.17 in1021.7 mb 0.00 in0.0 mm 0.00 in0.0 mm 0.00 in0.0 mm
06:15 AM 44.2°F6.8°C 31.7°F-0.2°C 61% 4.5 mph N7.2 kmh N 9.8 mph15.8 kmh 30.18 in1022.0 mb 0.00 in0.0 mm 0.00 in0.0 mm 0.00 in0.0 mm
06:30 AM 44.2°F6.8°C 31.2°F-0.4°C 60% 5.4 mph N8.7 kmh N 9.8 mph15.8 kmh 30.18 in1022.0 mb 0.00 in0.0 mm 0.00 in0.0 mm 0.00 in0.0 mm
06:45 AM 44.4°F6.9°C 30.6°F-0.8°C 58% 7.6 mph N12.2 kmh N 10.7 mph17.2 kmh 30.18 in1022.0 mb 0.00 in0.0 mm 0.00 in0.0 mm 0.00 in0.0 mm
07:00 AM 44.4°F6.9°C 30.6°F-0.8°C 58% 3.8 mph N6.1 kmh N 9.8 mph15.8 kmh 30.19 in1022.4 mb 0.00 in0.0 mm 0.00 in0.0 mm 0.00 in0.0 mm
07:15 AM 44.4°F6.9°C 30.2°F-1.0°C 57% 4.5 mph N7.2 kmh N 9.2 mph14.8 kmh 30.17 in1021.7 mb 0.00 in0.0 mm 0.00 in0.0 mm 0.00 in0.0 mm
07:30 AM 44.6°F7.0°C 29.4°F-1.4°C 55% 8.3 mph N13.4 kmh N 11.4 mph18.3 kmh 30.17 in1021.7 mb 0.00 in0.0 mm 0.00 in0.0 mm 0.00 in0.0 mm
07:45 AM 44.4°F6.9°C 30.2°F-1.0°C 57% 4.5 mph N7.2 kmh N 9.2 mph14.8 kmh 30.19 in1022.4 mb 0.00 in0.0 mm 0.00 in0.0 mm 0.00 in0.0 mm
08:00 AM 45.3°F7.4°C 30.6°F-0.8°C 56% 3.8 mph N6.1 kmh N 6.9 mph11.1 kmh 30.19 in1022.4 mb 0.00 in0.0 mm 0.00 in0.0 mm 0.00 in0.0 mm
08:15 AM 46.6°F8.1°C 31.7°F-0.2°C 56% 2.2 mph NNE3.5 kmh NNE 6.9 mph11.1 kmh 30.20 in1022.7 mb 0.00 in0.0 mm 0.00 in0.0 mm 0.00 in0.0 mm
08:30 AM 46.4°F8.0°C 31.6°F-0.2°C 56% 4.5 mph N7.2 kmh N 9.2 mph14.8 kmh 30.20 in1022.7 mb 0.00 in0.0 mm 0.00 in0.0 mm 0.00 in0.0 mm
08:45 AM 47.1°F8.4°C 31.8°F-0.1°C 55% 6.0 mph N9.7 kmh N 10.7 mph17.2 kmh 30.20 in1022.7 mb 0.00 in0.0 mm 0.00 in0.0 mm 0.00 in0.0 mm
09:00 AM 48.2°F9.0°C 31.9°F-0.1°C 53% 4.5 mph N7.2 kmh N 12.1 mph19.5 kmh 30.20 in1022.7 mb 0.00 in0.0 mm 0.00 in0.0 mm 0.00 in0.0 mm
09:15 AM 50.0°F10.0°C 32.1°F0.1°C 50% 6.9 mph N11.1 kmh N 10.7 mph17.2 kmh 30.21 in1023.0 mb 0.00 in0.0 mm 0.00 in0.0 mm 0.00 in0.0 mm
09:30 AM 51.4°F10.8°C 32.9°F0.5°C 49% 4.5 mph N7.2 kmh N 10.7 mph17.2 kmh 30.21 in1023.0 mb 0.00 in0.0 mm 0.00 in0.0 mm 0.00 in0.0 mm
09:45 AM 52.5°F11.4°C 33.4°F0.8°C 48% 4.5 mph N7.2 kmh N 18.3 mph29.5 kmh 30.21 in1023.0 mb 0.00 in0.0 mm 0.00 in0.0 mm 0.00 in0.0 mm
10:00 AM 53.6°F12.0°C 33.9°F1.1°C 47% 6.0 mph N9.7 kmh N 15.9 mph25.6 kmh 30.21 in1023.0 mb 0.00 in0.0 mm 0.00 in0.0 mm 0.00 in0.0 mm
10:15 AM 54.3°F12.4°C 34.5°F1.4°C 47% 5.4 mph N8.7 kmh N 14.5 mph23.3 kmh 30.21 in1023.0 mb 0.00 in0.0 mm 0.00 in0.0 mm 0.00 in0.0 mm
10:30 AM 55.6°F13.1°C 36.2°F2.3°C 48% 8.3 mph N13.4 kmh N 15.9 mph25.6 kmh 30.21 in1023.0 mb 0.00 in0.0 mm 0.00 in0.0 mm 0.00 in0.0 mm
10:45 AM 58.3°F14.6°C 37.6°F3.1°C 46% 6.9 mph N11.1 kmh N 12.1 mph19.5 kmh 30.21 in1023.0 mb 0.00 in0.0 mm 0.00 in0.0 mm 0.00 in0.0 mm
11:00 AM 59.4°F15.2°C 36.9°F2.7°C 43% 9.2 mph N14.8 kmh N 15.9 mph25.6 kmh 30.20 in1022.7 mb 0.00 in0.0 mm 0.00 in0.0 mm 0.00 in0.0 mm
11:15 AM 60.4°F15.8°C 37.3°F2.9°C 42% 6.0 mph NNW9.7 kmh NNW 15.9 mph25.6 kmh 30.20 in1022.7 mb 0.00 in0.0 mm 0.00 in0.0 mm 0.00 in0.0 mm
11:30 AM 61.7°F16.5°C 35.9°F2.2°C 38% 7.6 mph NNW12.2 kmh NNW 16.8 mph27.0 kmh 30.20 in1022.7 mb 0.00 in0.0 mm 0.00 in0.0 mm 0.00 in0.0 mm
11:45 AM 62.1°F16.7°C 35.5°F1.9°C 37% 15.2 mph NNW24.5 kmh NNW 23.5 mph37.8 kmh 30.19 in1022.4 mb 0.00 in0.0 mm 0.00 in0.0 mm 0.00 in0.0 mm
12:00 PM 63.3°F17.4°C 35.2°F1.8°C 35% 6.9 mph NNW11.1 kmh NNW 16.8 mph27.0 kmh 30.18 in1022.0 mb 0.00 in0.0 mm 0.00 in0.0 mm 0.00 in0.0 mm
12:15 PM 64.0°F17.8°C 34.4°F1.3°C 33% 10.7 mph NNW17.2 kmh NNW 19.0 mph30.6 kmh 30.17 in1021.7 mb 0.00 in0.0 mm 0.00 in0.0 mm 0.00 in0.0 mm
12:30 PM 65.5°F18.6°C 37.1°F2.8°C 35% 6.0 mph N9.7 kmh N 19.0 mph30.6 kmh 30.17 in1021.7 mb 0.00 in0.0 mm 0.00 in0.0 mm 0.00 in0.0 mm
12:45 PM 67.1°F19.5°C 37.8°F3.2°C 34% 6.0 mph N9.7 kmh N 13.6 mph21.9 kmh 30.16 in1021.3 mb 0.00 in0.0 mm 0.00 in0.0 mm 0.00 in0.0 mm
01:00 PM 66.7°F19.3°C 38.2°F3.4°C 35% 6.9 mph N11.1 kmh N 15.9 mph25.6 kmh 30.14 in1020.7 mb 0.00 in0.0 mm 0.00 in0.0 mm 0.00 in0.0 mm
01:15 PM 67.3°F19.6°C 38.7°F3.7°C 35% 14.5 mph NNW23.3 kmh NNW 19.0 mph30.6 kmh 30.13 in1020.3 mb 0.00 in0.0 mm 0.00 in0.0 mm 0.00 in0.0 mm
01:30 PM 68.5°F20.3°C 38.3°F3.5°C 33% 4.5 mph NNW7.2 kmh NNW 15.2 mph24.5 kmh 30.12 in1020.0 mb 0.00 in0.0 mm 0.00 in0.0 mm 0.00 in0.0 mm
01:45 PM 69.3°F20.7°C 37.4°F3.0°C 31% 9.8 mph N15.8 kmh N 20.6 mph33.2 kmh 30.11 in1019.6 mb 0.00 in0.0 mm 0.00 in0.0 mm 0.00 in0.0 mm
02:00 PM 69.6°F20.9°C 38.5°F3.6°C 32% 9.2 mph N14.8 kmh N 17.4 mph28.0 kmh 30.10 in1019.3 mb 0.00 in0.0 mm 0.00 in0.0 mm 0.00 in0.0 mm
02:15 PM 70.3°F21.3°C 36.6°F2.6°C 29% 7.6 mph N12.2 kmh N 18.3 mph29.5 kmh 30.09 in1019.0 mb 0.00 in0.0 mm 0.00 in0.0 mm 0.00 in0.0 mm
02:30 PM 70.5°F21.4°C 37.6°F3.1°C 30% 7.6 mph NNW12.2 kmh NNW 18.3 mph29.5 kmh 30.09 in1019.0 mb 0.00 in0.0 mm 0.00 in0.0 mm 0.00 in0.0 mm
02:45 PM 72.0°F22.2°C 36.2°F2.3°C 27% 6.0 mph NNW9.7 kmh NNW 15.2 mph24.5 kmh 30.07 in1018.3 mb 0.00 in0.0 mm 0.00 in0.0 mm 0.00 in0.0 mm
03:00 PM 72.0°F22.2°C 33.2°F0.7°C 24% 8.3 mph NW13.4 kmh NW 18.3 mph29.5 kmh 30.07 in1018.3 mb 0.00 in0.0 mm 0.00 in0.0 mm 0.00 in0.0 mm
03:15 PM 71.8°F22.1°C 32.0°F0.0°C 23% 6.0 mph NNW9.7 kmh NNW 20.6 mph33.2 kmh 30.05 in1017.6 mb 0.00 in0.0 mm 0.00 in0.0 mm 0.00 in0.0 mm
03:30 PM 72.3°F22.4°C 32.5°F0.3°C 23% 5.4 mph N8.7 kmh N 15.9 mph25.6 kmh 30.05 in1017.6 mb 0.00 in0.0 mm 0.00 in0.0 mm 0.00 in0.0 mm
03:45 PM 73.2°F22.9°C 34.3°F1.3°C 24% 8.3 mph NNW13.4 kmh NNW 13.6 mph21.9 kmh 30.04 in1017.3 mb 0.00 in0.0 mm 0.00 in0.0 mm 0.00 in0.0 mm
04:00 PM 73.2°F22.9°C 33.2°F0.7°C 23% 4.5 mph N7.2 kmh N 20.6 mph33.2 kmh 30.03 in1016.9 mb 0.00 in0.0 mm 0.00 in0.0 mm 0.00 in0.0 mm
04:15 PM 73.4°F23.0°C 36.5°F2.5°C 26% 9.2 mph N14.8 kmh N 15.9 mph25.6 kmh 30.02 in1016.6 mb 0.00 in0.0 mm 0.00 in0.0 mm 0.00 in0.0 mm
04:30 PM 73.4°F23.0°C 36.5°F2.5°C 26% 9.8 mph N15.8 kmh N 18.3 mph29.5 kmh 30.02 in1016.6 mb 0.00 in0.0 mm 0.00 in0.0 mm 0.00 in0.0 mm
04:45 PM 74.3°F23.5°C 36.2°F2.3°C 25% 6.9 mph N11.1 kmh N 15.9 mph25.6 kmh 30.02 in1016.6 mb 0.00 in0.0 mm 0.00 in0.0 mm 0.00 in0.0 mm
05:00 PM 73.2°F22.9°C 33.2°F0.7°C 23% 7.6 mph N12.2 kmh N 17.4 mph28.0 kmh 30.02 in1016.6 mb 0.00 in0.0 mm 0.00 in0.0 mm 0.00 in0.0 mm
05:15 PM 73.6°F23.1°C 36.6°F2.6°C 26% 7.6 mph NNW12.2 kmh NNW 15.2 mph24.5 kmh 30.02 in1016.6 mb 0.00 in0.0 mm 0.00 in0.0 mm 0.00 in0.0 mm
05:30 PM 72.9°F22.7°C 34.0°F1.1°C 24% 7.6 mph N12.2 kmh N 15.2 mph24.5 kmh 30.02 in1016.6 mb 0.00 in0.0 mm 0.00 in0.0 mm 0.00 in0.0 mm
05:45 PM 72.7°F22.6°C 33.8°F1.0°C 24% 9.2 mph N14.8 kmh N 14.5 mph23.3 kmh 30.01 in1016.3 mb 0.00 in0.0 mm 0.00 in0.0 mm 0.00 in0.0 mm
06:00 PM 72.0°F22.2°C 35.2°F1.8°C 26% 3.8 mph N6.1 kmh N 13.0 mph20.9 kmh 30.02 in1016.6 mb 0.00 in0.0 mm 0.00 in0.0 mm 0.00 in0.0 mm
06:15 PM 71.1°F21.7°C 37.2°F2.9°C 29% 5.4 mph N8.7 kmh N 11.4 mph18.3 kmh 30.02 in1016.6 mb 0.00 in0.0 mm 0.00 in0.0 mm 0.00 in0.0 mm
06:30 PM 69.8°F21.0°C 37.8°F3.2°C 31% 3.8 mph N6.1 kmh N 9.8 mph15.8 kmh 30.01 in1016.3 mb 0.00 in0.0 mm 0.00 in0.0 mm 0.00 in0.0 mm
06:45 PM 68.4°F20.2°C 38.2°F3.4°C 33% 2.2 mph NNE3.5 kmh NNE 10.7 mph17.2 kmh 30.02 in1016.6 mb 0.00 in0.0 mm 0.00 in0.0 mm 0.00 in0.0 mm
07:00 PM 67.1°F19.5°C 38.6°F3.7°C 35% 3.8 mph N6.1 kmh N 8.3 mph13.4 kmh 30.01 in1016.3 mb 0.00 in0.0 mm 0.00 in0.0 mm 0.00 in0.0 mm
07:15 PM 66.2°F19.0°C 38.5°F3.6°C 36% 3.8 mph N6.1 kmh N 6.9 mph11.1 kmh 30.02 in1016.6 mb 0.00 in0.0 mm 0.00 in0.0 mm 0.00 in0.0 mm
07:30 PM 65.1°F18.4°C 38.9°F3.8°C 38% 3.1 mph N5.0 kmh N 5.4 mph8.7 kmh 30.01 in1016.3 mb 0.00 in0.0 mm 0.00 in0.0 mm 0.00 in0.0 mm
07:45 PM 64.2°F17.9°C 38.8°F3.8°C 39% 3.1 mph N5.0 kmh N 6.0 mph9.7 kmh 30.02 in1016.6 mb 0.00 in0.0 mm 0.00 in0.0 mm 0.00 in0.0 mm
08:00 PM 63.5°F17.5°C 39.4°F4.1°C 41% 3.8 mph N6.1 kmh N 5.4 mph8.7 kmh 30.02 in1016.6 mb 0.00 in0.0 mm 0.00 in0.0 mm 0.00 in0.0 mm
08:15 PM 63.1°F17.3°C 39.1°F3.9°C 41% 3.1 mph N5.0 kmh N 7.6 mph12.2 kmh 30.02 in1016.6 mb 0.00 in0.0 mm 0.00 in0.0 mm 0.00 in0.0 mm
08:30 PM 62.4°F16.9°C 39.6°F4.2°C 43% 2.2 mph N3.5 kmh N 6.0 mph9.7 kmh 30.02 in1016.6 mb 0.00 in0.0 mm 0.00 in0.0 mm 0.00 in0.0 mm
08:45 PM 61.7°F16.5°C 39.6°F4.2°C 44% 4.5 mph N7.2 kmh N 6.9 mph11.1 kmh 30.02 in1016.6 mb 0.00 in0.0 mm 0.00 in0.0 mm 0.00 in0.0 mm
09:00 PM 61.3°F16.3°C 39.3°F4.1°C 44% 3.8 mph N6.1 kmh N 8.3 mph13.4 kmh 30.02 in1016.6 mb 0.00 in0.0 mm 0.00 in0.0 mm 0.00 in0.0 mm
09:15 PM 61.0°F16.1°C 38.9°F3.8°C 44% 3.1 mph N5.0 kmh N 8.3 mph13.4 kmh 30.02 in1016.6 mb 0.00 in0.0 mm 0.00 in0.0 mm 0.00 in0.0 mm
09:30 PM 60.4°F15.8°C 39.0°F3.9°C 45% 3.8 mph NNE6.1 kmh NNE 9.8 mph15.8 kmh 30.02 in1016.6 mb 0.00 in0.0 mm 0.00 in0.0 mm 0.00 in0.0 mm
09:45 PM 59.9°F15.5°C 38.5°F3.6°C 45% 6.0 mph N9.7 kmh N 9.8 mph15.8 kmh 30.02 in1016.6 mb 0.00 in0.0 mm 0.00 in0.0 mm 0.00 in0.0 mm
10:00 PM 59.4°F15.2°C 38.0°F3.3°C 45% 6.0 mph N9.7 kmh N 10.7 mph17.2 kmh 30.02 in1016.6 mb 0.00 in0.0 mm 0.00 in0.0 mm 0.00 in0.0 mm
10:15 PM 58.8°F14.9°C 38.1°F3.4°C 46% 3.8 mph N6.1 kmh N 9.8 mph15.8 kmh 30.02 in1016.6 mb 0.00 in0.0 mm 0.00 in0.0 mm 0.00 in0.0 mm
10:30 PM 57.6°F14.2°C 38.0°F3.3°C 48% 3.8 mph NNE6.1 kmh NNE 8.3 mph13.4 kmh 30.04 in1017.3 mb 0.00 in0.0 mm 0.00 in0.0 mm 0.00 in0.0 mm
10:45 PM 56.5°F13.6°C 39.6°F4.2°C 53% 4.5 mph N7.2 kmh N 6.9 mph11.1 kmh 30.04 in1017.3 mb 0.00 in0.0 mm 0.00 in0.0 mm 0.00 in0.0 mm
11:00 PM 55.9°F13.3°C 39.5°F4.2°C 54% 3.8 mph N6.1 kmh N 9.8 mph15.8 kmh 30.03 in1016.9 mb 0.00 in0.0 mm 0.00 in0.0 mm 0.00 in0.0 mm
11:15 PM 55.6°F13.1°C 39.2°F4.0°C 54% 5.4 mph N8.7 kmh N 9.8 mph15.8 kmh 30.03 in1016.9 mb 0.00 in0.0 mm 0.00 in0.0 mm 0.00 in0.0 mm
11:30 PM 55.4°F13.0°C 39.0°F3.9°C 54% 4.5 mph N7.2 kmh N 13.6 mph21.9 kmh 30.03 in1016.9 mb 0.00 in0.0 mm 0.00 in0.0 mm 0.00 in0.0 mm
11:45 PM 55.0°F12.8°C 38.7°F3.7°C 54% 4.5 mph N7.2 kmh N 14.5 mph23.3 kmh 30.03 in1016.9 mb 0.00 in0.0 mm 0.00 in0.0 mm 0.00 in0.0 mm